Deer Isle, Maine
Current Conditions -  °F | °C
As of 7:35 AM on Friday 24 Oct 2014 (Local Time) from KBHB Reporting Station
Overcast Overcast  
Wind Chill: 43°   Ceiling: 1300
Heat Index: 48°   Visibility: 10mi
Dew Point: 48°   Wind: 12mph
Humidity: 100%   Direction: 10°N
Pressure: 29.62"   Gusts: NA
Location:  44.21°N, 68.68°W
Report Text: KBHB 241135Z AUTO 01010KT 10SM OVC013 09/09 A2962 RMK AO1 P0001
Loading
Personal Weather Stations






























Interactive Weather Map
Tropical Storm Tracking
New forecast layout! Learn more

10-Day Weather Forecast

Advertisements
Track Severe Weather on mobile